createdAt,value
2022-09-10T00:00:43.592Z,21.28
2022-09-10T00:03:11.414Z,21.25
2022-09-10T00:05:43.805Z,21.28
2022-09-10T00:08:11.105Z,21.21
2022-09-10T00:10:42.833Z,21.24
2022-09-10T00:13:10.517Z,21.18
2022-09-10T00:15:46.970Z,21.25
2022-09-10T00:18:15.673Z,21.18
2022-09-10T00:20:43.597Z,21.18
2022-09-10T00:23:10.406Z,21.17
2022-09-10T00:25:37.141Z,21.18
2022-09-10T00:28:03.688Z,21.20
2022-09-10T00:30:30.350Z,21.24
2022-09-10T00:32:56.929Z,21.28
2022-09-10T00:35:23.965Z,21.34
2022-09-10T00:37:50.477Z,21.40
2022-09-10T00:40:17.197Z,21.45
2022-09-10T00:42:43.742Z,21.52
2022-09-10T00:45:18.798Z,21.64
2022-09-10T00:47:47.848Z,21.63
2022-09-10T00:50:37.825Z,21.76
2022-09-10T00:53:11.256Z,21.75
2022-09-10T00:55:42.573Z,21.79
2022-09-10T00:58:12.031Z,21.75
2022-09-10T01:00:41.151Z,21.73
2022-09-10T01:03:11.449Z,21.74
2022-09-10T01:05:42.489Z,21.66
2022-09-10T01:08:14.034Z,21.69
2022-09-10T01:11:06.794Z,21.63
2022-09-10T01:13:55.210Z,21.56
2022-09-10T01:16:34.794Z,21.56
2022-09-10T01:19:24.514Z,21.63
2022-09-10T01:21:51.976Z,21.43
2022-09-10T01:24:47.147Z,21.56
2022-09-10T01:27:45.955Z,21.54
2022-09-10T01:30:20.420Z,21.46
2022-09-10T01:32:59.425Z,21.50
2022-09-10T01:35:44.816Z,21.41
2022-09-10T01:38:23.547Z,21.51
2022-09-10T01:40:50.530Z,21.44
2022-09-10T01:43:17.039Z,21.42
2022-09-10T01:46:03.266Z,21.80
2022-09-10T01:48:54.811Z,21.61
2022-09-10T01:51:31.911Z,21.52
2022-09-10T01:54:14.386Z,21.55
2022-09-10T01:56:55.451Z,21.58
2022-09-10T01:59:47.799Z,21.65
2022-09-10T02:02:20.812Z,21.57
2022-09-10T02:04:50.536Z,21.49
2022-09-10T02:07:21.342Z,21.46
2022-09-10T02:09:50.803Z,21.37
2022-09-10T02:12:19.771Z,21.32
2022-09-10T02:14:51.855Z,21.31
2022-09-10T02:17:19.340Z,21.19
2022-09-10T02:19:47.643Z,21.18
2022-09-10T02:22:15.540Z,21.14
2022-09-10T02:24:44.353Z,21.10
2022-09-10T02:27:12.060Z,21.06
2022-09-10T02:29:39.936Z,21.01
2022-09-10T02:32:08.414Z,20.96
2022-09-10T02:34:36.272Z,20.93
2022-09-10T02:37:03.764Z,20.91
2022-09-10T02:39:31.020Z,20.89
2022-09-10T02:41:58.808Z,20.90
2022-09-10T02:44:26.918Z,20.90
2022-09-10T02:46:53.412Z,20.94
2022-09-10T02:49:21.157Z,21.34
2022-09-10T02:51:50.562Z,21.09
2022-09-10T02:54:19.990Z,21.12
2022-09-10T02:56:49.974Z,21.17
2022-09-10T02:59:18.053Z,21.24
2022-09-10T03:01:44.799Z,21.31
2022-09-10T03:04:11.392Z,21.37
2022-09-10T03:06:38.239Z,21.42
2022-09-10T03:09:04.846Z,21.49
2022-09-10T03:11:31.743Z,21.53
2022-09-10T03:13:58.594Z,21.56
2022-09-10T03:16:25.221Z,21.57
2022-09-10T03:18:52.418Z,21.57
2022-09-10T03:21:21.646Z,21.53
2022-09-10T03:23:50.785Z,21.50
2022-09-10T03:26:19.033Z,21.42
2022-09-10T03:28:46.685Z,21.38
2022-09-10T03:31:14.058Z,21.34
2022-09-10T03:33:41.373Z,21.28
2022-09-10T03:36:09.708Z,21.25
2022-09-10T03:38:36.321Z,21.20
2022-09-10T03:41:03.196Z,21.17
2022-09-10T03:43:30.226Z,21.13
2022-09-10T03:45:57.007Z,21.11
2022-09-10T03:48:23.998Z,21.09
2022-09-10T03:50:53.281Z,21.08
2022-09-10T03:53:20.186Z,21.07
2022-09-10T03:55:48.022Z,21.11
2022-09-10T03:58:16.139Z,21.14
2022-09-10T04:00:43.072Z,21.17
2022-09-10T04:03:11.151Z,21.23
2022-09-10T04:05:44.074Z,21.32
2022-09-10T04:08:12.265Z,21.29
2022-09-10T04:10:44.117Z,21.35
2022-09-10T04:13:11.469Z,21.28
2022-09-10T04:15:38.201Z,21.25
2022-09-10T04:18:06.226Z,21.22
2022-09-10T04:20:33.985Z,21.16
2022-09-10T04:23:00.614Z,21.12
2022-09-10T04:25:27.799Z,21.06
2022-09-10T04:27:54.626Z,21.03
2022-09-10T04:30:21.103Z,21.00
2022-09-10T04:32:47.613Z,21.37
2022-09-10T04:35:17.197Z,20.98
2022-09-10T04:37:43.806Z,20.88
2022-09-10T04:40:10.765Z,20.80
2022-09-10T04:45:13.606Z,20.69
2022-09-10T04:47:40.205Z,21.02
2022-09-10T04:50:07.344Z,20.60
2022-09-10T04:52:33.899Z,20.53
2022-09-10T04:55:00.331Z,20.49
2022-09-10T04:57:26.676Z,20.84
2022-09-10T04:59:54.043Z,20.46
2022-09-10T05:02:20.724Z,20.42
2022-09-10T05:04:47.235Z,20.37
2022-09-10T05:07:13.591Z,20.73
2022-09-10T05:09:40.132Z,20.37
2022-09-10T05:12:06.551Z,20.71
2022-09-10T05:14:33.966Z,20.33
2022-09-10T05:17:01.312Z,20.28
2022-09-10T05:19:27.720Z,20.24
2022-09-10T05:21:54.203Z,20.20
2022-09-10T05:24:21.178Z,20.52
2022-09-10T05:26:47.616Z,20.19
2022-09-10T05:29:14.168Z,20.50
2022-09-10T05:31:41.048Z,20.13
2022-09-10T05:34:08.449Z,20.08
2022-09-10T05:36:35.590Z,20.04
2022-09-10T05:39:03.786Z,20.00
2022-09-10T05:41:31.209Z,20.01
2022-09-10T05:43:58.649Z,19.99
2022-09-10T05:46:25.437Z,20.00
2022-09-10T05:48:54.256Z,19.99
2022-09-10T05:51:21.838Z,20.01
2022-09-10T05:53:48.369Z,20.01
2022-09-10T05:56:14.756Z,20.39
2022-09-10T05:58:41.360Z,20.10
2022-09-10T06:01:07.884Z,20.09
2022-09-10T06:03:34.525Z,20.47
2022-09-10T06:06:00.986Z,20.22
2022-09-10T06:08:27.373Z,20.54
2022-09-10T06:11:05.858Z,20.35
2022-09-10T06:13:33.936Z,20.23
2022-09-10T06:16:00.998Z,20.23
2022-09-10T06:18:28.077Z,20.25
2022-09-10T06:21:06.162Z,20.34
2022-09-10T06:23:33.082Z,20.28
2022-09-10T06:26:04.396Z,20.35
2022-09-10T06:28:33.097Z,20.33
2022-09-10T06:31:00.251Z,20.33
2022-09-10T06:33:26.941Z,20.33
2022-09-10T06:35:57.762Z,20.38
2022-09-10T06:38:25.212Z,20.36
2022-09-10T06:40:56.050Z,20.37
2022-09-10T06:43:23.641Z,20.40
2022-09-10T06:45:52.297Z,20.42
2022-09-10T06:48:47.641Z,20.49
2022-09-10T06:51:14.181Z,20.48
2022-09-10T06:53:42.902Z,20.48
2022-09-10T06:56:13.070Z,20.55
2022-09-10T06:58:39.935Z,20.53
2022-09-10T07:01:25.815Z,20.71
2022-09-10T07:03:57.044Z,20.66
2022-09-10T07:06:24.730Z,20.66
2022-09-10T07:08:58.232Z,20.75
2022-09-10T07:11:26.838Z,20.76
2022-09-10T07:13:53.781Z,20.78
2022-09-10T07:16:21.975Z,20.83
2022-09-10T07:18:50.383Z,20.90
2022-09-10T07:21:18.421Z,20.94
2022-09-10T07:23:46.498Z,20.96
2022-09-10T07:26:15.735Z,21.02
2022-09-10T07:28:42.892Z,21.06
2022-09-10T07:31:23.559Z,21.14
2022-09-10T07:33:50.587Z,21.15
2022-09-10T07:36:18.079Z,21.14
2022-09-10T07:38:44.927Z,21.16
2022-09-10T07:41:13.235Z,21.18
2022-09-10T07:43:41.683Z,21.18
2022-09-10T07:46:12.485Z,21.19
2022-09-10T07:48:41.447Z,21.21
2022-09-10T07:51:09.140Z,21.24
2022-09-10T07:53:35.987Z,21.26
2022-09-10T07:56:05.520Z,21.30
2022-09-10T07:58:33.622Z,21.31
2022-09-10T08:01:00.331Z,21.35
2022-09-10T08:03:27.821Z,21.40
2022-09-10T08:05:55.082Z,21.49
2022-09-10T08:08:22.427Z,21.58
2022-09-10T08:10:49.760Z,21.68
2022-09-10T08:13:16.519Z,21.78
2022-09-10T08:15:46.107Z,21.90
2022-09-10T08:18:13.680Z,21.93
2022-09-10T08:20:40.783Z,21.95
2022-09-10T08:23:07.946Z,21.98
2022-09-10T08:25:34.925Z,21.99
2022-09-10T08:28:01.403Z,22.00
2022-09-10T08:30:28.169Z,22.32
2022-09-10T08:32:56.146Z,22.04
2022-09-10T08:35:22.653Z,22.00
2022-09-10T08:37:49.201Z,21.95
2022-09-10T08:40:16.434Z,21.91
2022-09-10T08:42:49.333Z,21.94
2022-09-10T08:45:31.505Z,22.00
2022-09-10T08:48:05.973Z,21.91
2022-09-10T08:50:46.625Z,21.94
2022-09-10T08:53:28.159Z,21.91
2022-09-10T08:55:58.708Z,21.88
2022-09-10T08:58:35.934Z,21.93
2022-09-10T09:01:05.083Z,21.90
2022-09-10T09:03:37.997Z,21.97
2022-09-10T09:06:09.060Z,21.98
2022-09-10T09:08:48.634Z,22.08
2022-09-10T09:11:21.026Z,22.11
2022-09-10T09:14:16.987Z,22.22
2022-09-10T09:16:51.015Z,22.11
2022-09-10T09:19:23.313Z,22.14
2022-09-10T09:21:53.181Z,22.18
2022-09-10T09:24:48.912Z,22.30
2022-09-10T09:27:20.197Z,22.25
2022-09-10T09:29:56.435Z,22.35
2022-09-10T09:32:24.017Z,22.38
2022-09-10T09:34:56.785Z,22.48
2022-09-10T09:37:27.187Z,22.54
2022-09-10T09:40:05.782Z,22.66
2022-09-10T09:42:45.592Z,22.72
2022-09-10T09:45:28.331Z,22.74
2022-09-10T09:47:55.887Z,22.74
2022-09-10T09:50:23.061Z,22.77
2022-09-10T09:52:55.216Z,22.86
2022-09-10T09:55:34.982Z,22.96
2022-09-10T09:58:33.741Z,23.09
2022-09-10T10:01:09.734Z,23.11
2022-09-10T10:03:53.465Z,23.21
2022-09-10T10:06:34.717Z,23.31
2022-09-10T10:09:06.832Z,23.29
2022-09-10T10:11:45.197Z,23.40
2022-09-10T10:14:20.151Z,23.43
2022-09-10T10:16:52.266Z,23.46
2022-09-10T10:19:36.648Z,23.59
2022-09-10T10:22:17.073Z,23.62
2022-09-10T10:24:45.210Z,23.56
2022-09-10T10:27:26.673Z,23.64
2022-09-10T10:30:22.190Z,23.64
2022-09-10T10:32:57.008Z,23.63
2022-09-10T10:35:42.899Z,23.56
2022-09-10T10:38:33.320Z,23.69
2022-09-10T10:41:24.650Z,23.59
2022-09-10T10:44:13.355Z,23.57
2022-09-10T10:46:45.914Z,23.47
2022-09-10T10:49:32.270Z,23.43
2022-09-10T10:52:10.571Z,23.47
2022-09-10T10:54:43.598Z,23.43
2022-09-10T10:57:53.463Z,23.47
2022-09-10T11:00:20.773Z,23.32
2022-09-10T11:03:16.059Z,23.43
2022-09-10T11:05:53.827Z,23.37
2022-09-10T11:08:35.044Z,23.38
2022-09-10T11:11:18.775Z,23.42
2022-09-10T11:13:57.807Z,23.38
2022-09-10T11:16:40.290Z,23.32
2022-09-10T11:19:35.787Z,23.37
2022-09-10T11:22:14.460Z,23.30
2022-09-10T11:24:50.247Z,23.25
2022-09-10T11:27:27.724Z,23.22
2022-09-10T11:30:10.097Z,23.24
2022-09-10T11:33:05.788Z,23.23
2022-09-10T11:35:48.251Z,23.17
2022-09-10T11:38:29.186Z,23.11
2022-09-10T11:41:04.380Z,23.08
2022-09-10T11:43:44.027Z,23.08
2022-09-10T11:46:15.283Z,23.11
2022-09-10T11:48:50.900Z,23.16
2022-09-10T11:51:24.325Z,23.29
2022-09-10T11:53:57.303Z,23.33
2022-09-10T11:57:01.060Z,23.53
2022-09-10T11:59:49.441Z,23.51
2022-09-10T12:02:40.988Z,23.59
2022-09-10T12:05:31.360Z,23.71
2022-09-10T12:07:57.714Z,23.61
2022-09-10T12:10:53.295Z,23.96
2022-09-10T12:13:19.934Z,23.71
2022-09-10T12:16:02.583Z,23.80
2022-09-10T12:18:42.751Z,23.77
2022-09-10T12:21:20.227Z,23.81
2022-09-10T12:23:49.120Z,23.77
2022-09-10T12:26:21.071Z,23.79
2022-09-10T12:28:53.650Z,23.87
2022-09-10T12:31:21.621Z,23.84
2022-09-10T12:33:48.153Z,23.89
2022-09-10T12:36:35.760Z,23.93
2022-09-10T12:39:22.670Z,24.12
2022-09-10T12:41:49.823Z,24.04
2022-09-10T12:44:36.729Z,24.17
2022-09-10T12:47:15.845Z,24.19
2022-09-10T12:49:57.484Z,24.23
2022-09-10T12:52:52.728Z,24.30
2022-09-10T12:55:36.196Z,24.35
2022-09-10T12:58:30.354Z,24.41
2022-09-10T13:00:58.128Z,24.35
2022-09-10T13:03:27.931Z,24.36
2022-09-10T13:05:57.722Z,24.38
2022-09-10T13:08:28.043Z,24.40
2022-09-10T13:10:58.380Z,24.42
2022-09-10T13:13:39.979Z,24.46
2022-09-10T13:16:13.929Z,24.43
2022-09-10T13:18:42.077Z,24.38
2022-09-10T13:21:40.756Z,24.57
2022-09-10T13:24:31.784Z,24.50
2022-09-10T13:27:20.557Z,24.47
2022-09-10T13:29:56.345Z,24.41
2022-09-10T13:32:34.454Z,24.42
2022-09-10T13:35:21.974Z,24.46
2022-09-10T13:37:54.483Z,24.38
2022-09-10T13:41:07.016Z,24.51
2022-09-10T13:44:01.499Z,24.56
2022-09-10T13:46:35.267Z,24.55
2022-09-10T13:49:26.373Z,24.69
2022-09-10T13:51:56.609Z,24.72
2022-09-10T13:54:36.597Z,24.85
2022-09-10T13:57:20.236Z,25.02
2022-09-10T13:59:50.600Z,25.08
2022-09-10T14:02:19.798Z,25.18
2022-09-10T14:04:46.556Z,25.32
2022-09-10T14:07:17.050Z,25.42
2022-09-10T14:09:49.376Z,25.49
2022-09-10T14:12:19.284Z,25.55
2022-09-10T14:14:49.995Z,25.57
2022-09-10T14:17:23.224Z,25.56
2022-09-10T14:19:58.028Z,25.52
2022-09-10T14:22:26.469Z,25.43
2022-09-10T14:24:53.756Z,25.39
2022-09-10T14:27:26.101Z,25.36
2022-09-10T14:29:56.432Z,25.23
2022-09-10T14:32:22.838Z,25.16
2022-09-10T14:34:49.257Z,25.06
2022-09-10T14:37:44.989Z,25.18
2022-09-10T14:40:20.846Z,25.00
2022-09-10T14:42:52.509Z,24.87
2022-09-10T14:45:46.535Z,24.93
2022-09-10T14:48:42.352Z,24.87
2022-09-10T14:51:11.024Z,24.70
2022-09-10T14:53:37.939Z,24.66
2022-09-10T14:56:10.017Z,24.66
2022-09-10T14:58:36.442Z,24.62
2022-09-10T15:01:04.158Z,24.59
2022-09-10T15:03:30.557Z,24.58
2022-09-10T15:05:56.982Z,24.56
2022-09-10T15:08:23.418Z,24.55
2022-09-10T15:10:50.259Z,24.51
2022-09-10T15:13:18.945Z,24.50
2022-09-10T15:15:50.094Z,24.48
2022-09-10T15:18:17.338Z,24.47
2022-09-10T15:20:43.765Z,24.44
2022-09-10T15:23:11.595Z,24.41
2022-09-10T15:25:44.762Z,24.44
2022-09-10T15:28:11.166Z,24.35
2022-09-10T15:30:37.681Z,24.32
2022-09-10T15:33:05.863Z,24.29
2022-09-10T15:35:32.370Z,24.27
2022-09-10T15:38:01.441Z,24.25
2022-09-10T15:40:28.107Z,24.20
2022-09-10T15:42:54.736Z,24.18
2022-09-10T19:45:49.431Z,22.03
2022-09-10T19:48:16.023Z,21.97
2022-09-10T19:50:45.256Z,21.93
2022-09-10T19:53:12.318Z,21.90
2022-09-10T19:55:41.944Z,21.89
2022-09-10T19:58:13.152Z,21.92
2022-09-10T20:00:46.922Z,21.87
2022-09-10T20:03:14.555Z,21.86
2022-09-10T20:05:44.579Z,21.88
2022-09-10T20:08:11.100Z,21.83
2022-09-10T20:10:39.133Z,21.82
2022-09-10T20:13:06.137Z,21.80
2022-09-10T20:15:32.853Z,21.80
2022-09-10T20:18:00.967Z,21.76
2022-09-10T20:20:30.320Z,21.79
2022-09-10T20:23:01.382Z,21.76
2022-09-10T20:25:31.693Z,21.70
2022-09-10T20:27:58.641Z,21.67
2022-09-10T20:30:26.024Z,21.64
2022-09-10T20:32:52.624Z,21.62
2022-09-10T20:35:19.125Z,21.60
2022-09-10T20:37:51.651Z,21.98
2022-09-10T20:40:18.340Z,21.62
2022-09-10T20:42:44.804Z,21.96
2022-09-10T20:45:11.417Z,21.59
2022-09-10T20:47:43.131Z,21.54
2022-09-10T20:50:13.744Z,21.58
2022-09-10T20:52:41.928Z,21.49
2022-09-10T20:55:10.105Z,21.45
2022-09-10T20:57:36.551Z,21.42
2022-09-10T21:00:03.108Z,21.80
2022-09-10T21:02:29.719Z,21.44
2022-09-10T21:04:56.602Z,21.38
2022-09-10T21:07:25.828Z,21.34
2022-09-10T21:09:52.532Z,21.31
2022-09-10T21:12:19.099Z,21.28
2022-09-10T21:14:48.548Z,21.31
2022-09-10T21:17:17.780Z,21.24
2022-09-10T21:19:44.308Z,21.22
2022-09-10T21:22:10.989Z,21.20
2022-09-10T21:24:39.682Z,21.18
2022-09-10T21:27:06.436Z,21.16
2022-09-10T21:29:36.332Z,21.18
2022-09-10T21:32:06.140Z,21.11
2022-09-10T21:34:37.556Z,21.10
2022-09-10T21:37:04.201Z,21.11
2022-09-10T21:39:30.662Z,21.15
2022-09-10T21:42:00.313Z,21.58
2022-09-10T21:44:26.933Z,21.34
2022-09-10T21:46:53.418Z,21.39
2022-09-10T21:49:23.033Z,21.51
2022-09-10T21:51:52.834Z,21.56
2022-09-10T21:54:28.297Z,21.65
2022-09-10T21:56:56.008Z,21.72
2022-09-10T21:59:27.772Z,21.83
2022-09-10T22:01:54.570Z,21.86
2022-09-10T22:04:23.128Z,21.94
2022-09-10T22:06:50.672Z,22.01
2022-09-10T22:09:19.695Z,22.07
2022-09-10T22:11:50.302Z,22.13
2022-09-10T22:14:19.196Z,22.18
2022-09-10T22:16:45.950Z,22.22
2022-09-10T22:19:18.901Z,22.28
2022-09-10T22:21:46.318Z,22.30
2022-09-10T22:24:20.426Z,22.37
2022-09-10T22:26:47.493Z,22.36
2022-09-10T22:29:20.418Z,22.41
2022-09-10T22:31:47.866Z,22.42
2022-09-10T22:34:16.020Z,22.44
2022-09-10T22:36:44.913Z,22.46
2022-09-10T22:39:13.037Z,22.49
2022-09-10T22:41:40.443Z,22.47
2022-09-10T22:44:07.543Z,22.50
2022-09-10T22:46:35.661Z,22.51
2022-09-10T22:49:02.839Z,22.52
2022-09-10T22:51:34.514Z,22.54
2022-09-10T22:54:01.476Z,22.54
2022-09-10T22:56:28.576Z,22.53
2022-09-10T22:58:57.947Z,22.53
2022-09-10T23:01:27.758Z,22.53
2022-09-10T23:03:59.233Z,22.55
2022-09-10T23:06:28.352Z,22.51
2022-09-10T23:08:58.132Z,22.51
2022-09-10T23:11:27.899Z,22.54
2022-09-10T23:13:57.532Z,22.53
2022-09-10T23:16:36.573Z,22.58
2022-09-10T23:19:05.932Z,22.54
2022-09-10T23:21:34.406Z,22.53
2022-09-10T23:24:03.831Z,22.52
2022-09-10T23:26:30.532Z,22.51
2022-09-10T23:28:57.529Z,22.51
2022-09-10T23:31:26.249Z,22.51
2022-09-10T23:33:58.567Z,22.55
2022-09-10T23:36:26.867Z,22.48
2022-09-10T23:38:53.877Z,22.46
2022-09-10T23:41:20.594Z,22.45
2022-09-10T23:43:47.573Z,22.43
2022-09-10T23:46:14.486Z,22.44
2022-09-10T23:48:45.985Z,22.43
2022-09-10T23:51:14.400Z,22.42
2022-09-10T23:53:41.230Z,22.42
2022-09-10T23:56:08.652Z,22.42
2022-09-10T23:58:35.503Z,22.43
